Time;durP1;ratioP1;P1;durP2;ratioP2;P2;SDS_P1;SDS_P2;PMS_P1;PMS_P2;Temp;Humidity;BMP_temperature;BMP_pressure;BME280_temperature;BME280_humidity;BME280_pressure;Samples;Min_cycle;Max_cycle;Signal;HPM_P1;HPM_P2
2022/10/07 00:00:44;;;;;;;;;;;;;;;21.75;59.94;99745.16;2096517;28;19932;-50
2022/10/07 00:01:46;;;;;;;;;;;;;;;21.74;60.28;99739.97;2094228;28;20301;-53
2022/10/07 00:02:46;;;;;;;;;;;;;;;21.74;60.33;99738.09;2097107;28;19932;-54
2022/10/07 00:03:48;;;;;;;;;;;;;;;21.74;60.06;99737.25;2097451;28;20007;-51
2022/10/07 00:04:48;;;;;;;;;;;;;;;21.74;60.21;99737.25;2093837;28;20129;-55
2022/10/07 00:06:00;;;;;;;;;;;;;;;21.74;60.28;99735.38;2094817;28;19929;-51
2022/10/07 00:07:00;;;;;;;;;;;;;;;;;;2095362;28;19928;-53
2022/10/07 00:08:02;;;;;;;;;;;;;;;21.73;59.93;99740.97;2098002;28;19932;-57
2022/10/07 00:09:02;;;;;;;;;;;;;;;21.74;60.17;99742.66;2096504;28;19932;-54
2022/10/07 00:10:04;;;;;;;;;;;;;;;21.73;60.21;99735.56;2097993;28;19972;-54
2022/10/07 00:11:04;;;;;;;;;;;;;;;;;;2090977;28;19985;-54
2022/10/07 00:12:06;;;;;;;;;;;;;;;21.72;60.07;99742.03;2094267;28;20329;-53
2022/10/07 00:13:07;;;;;;;;;;;;;;;21.73;60.08;99740.97;2094326;28;20259;-51
2022/10/07 00:14:08;;;;;;;;;;;;;;;;;;2091784;28;19970;-54
2022/10/07 00:15:09;;;;;;;;;;;;;;;21.73;59.96;99735.56;2089013;28;19970;-56
2022/10/07 00:16:12;;;;;;;;;;;;;;;21.73;59.89;99740.97;2095654;28;19981;-58
2022/10/07 00:17:12;;;;;;;;;;;;;;;21.72;60.00;99739.31;2094816;28;20030;-55
2022/10/07 00:18:14;;;;;;;;;;;;;;;21.72;60.20;99736.63;2092033;28;20385;-56
2022/10/07 00:19:14;;;;;;;;;;;;;;;21.72;60.04;99733.91;2093591;28;19964;-51
2022/10/07 00:20:16;;;;;;;;;;;;;;;21.71;60.24;99735.78;2095053;28;19924;-53
2022/10/07 00:21:18;;;;;;;;;;;;;;;21.71;60.06;99732.25;2093316;28;19932;-51
2022/10/07 00:22:19;;;;;;;;;;;;;;;21.72;59.98;99736.63;2093093;28;20767;-52
2022/10/07 00:23:20;;;;;;;;;;;;;;;21.71;60.09;99738.50;2096991;28;19928;-50
2022/10/07 00:24:22;;;;;;;;;;;;;;;21.71;60.07;99734.97;2100253;28;19973;-52
2022/10/07 00:25:22;;;;;;;;;;;;;;;21.71;59.90;99743.06;2090653;28;19932;-50
2022/10/07 00:26:24;;;;;;;;;;;;;;;21.71;59.95;99734.97;2093686;28;20859;-49
2022/10/07 00:27:25;;;;;;;;;;;;;;;21.71;60.12;99738.50;2094799;28;19993;-48
2022/10/07 00:28:26;;;;;;;;;;;;;;;21.71;60.00;99732.25;2099551;28;20534;-50
2022/10/07 00:29:27;;;;;;;;;;;;;;;21.71;60.13;99732.25;2100031;28;19928;-47
2022/10/07 00:30:28;;;;;;;;;;;;;;;21.71;60.21;99732.25;2096166;28;19925;-50
2022/10/07 00:31:30;;;;;;;;;;;;;;;21.69;59.94;99732.44;2092983;28;20394;-49
2022/10/07 00:32:31;;;;;;;;;;;;;;;21.71;60.12;99732.25;2093058;28;19932;-51
2022/10/07 00:33:33;;;;;;;;;;;;;;;21.69;60.09;99728.91;2096093;28;19950;-49
2022/10/07 00:34:34;;;;;;;;;;;;;;;21.68;59.94;99725.38;2097393;28;19929;-55
2022/10/07 00:35:35;;;;;;;;;;;;;;;21.68;60.28;99721.84;2090048;28;19928;-49
2022/10/07 00:36:38;;;;;;;;;;;;;;;21.68;60.04;99721.84;2091593;28;20845;-53
2022/10/07 00:37:41;;;;;;;;;;;;;;;21.69;60.14;99724.34;2094554;28;19952;-55
2022/10/07 00:38:43;;;;;;;;;;;;;;;21.68;60.11;99716.47;2094823;28;19978;-50
2022/10/07 00:39:44;;;;;;;;;;;;;;;21.69;59.96;99716.25;2092323;28;20502;-51
2022/10/07 00:40:46;;;;;;;;;;;;;;;21.68;60.30;99717.28;2093425;28;19933;-54
2022/10/07 00:41:49;;;;;;;;;;;;;;;21.68;60.01;99716.47;2093718;28;19940;-54
2022/10/07 00:42:50;;;;;;;;;;;;;;;21.68;59.93;99711.06;2094544;28;19928;-51
2022/10/07 00:43:51;;;;;;;;;;;;;;;21.69;59.94;99718.13;2099296;28;20381;-50
2022/10/07 00:44:52;;;;;;;;;;;;;;;21.68;60.08;99720.00;2094930;28;19928;-48
2022/10/07 00:45:55;;;;;;;;;;;;;;;21.68;60.02;99717.28;2092875;28;19925;-51
2022/10/07 00:46:57;;;;;;;;;;;;;;;21.68;60.07;99714.59;2099918;28;19932;-50
2022/10/07 00:47:57;;;;;;;;;;;;;;;21.68;60.01;99709.19;2095165;28;19977;-50
2022/10/07 00:49:00;;;;;;;;;;;;;;;21.69;60.08;99712.72;2091241;28;19973;-50
2022/10/07 00:50:03;;;;;;;;;;;;;;;21.68;60.01;99719.16;2093933;28;19928;-51
2022/10/07 00:51:04;;;;;;;;;;;;;;;21.68;59.84;99713.75;2095913;28;19932;-50
2022/10/07 00:52:07;;;;;;;;;;;;;;;21.67;60.31;99712.91;2095496;28;19933;-50
2022/10/07 00:53:09;;;;;;;;;;;;;;;21.67;60.27;99706.66;2086156;28;20016;-51
2022/10/07 00:54:11;;;;;;;;;;;;;;;21.66;60.05;99708.53;2080434;28;20379;-53
2022/10/07 00:55:15;;;;;;;;;;;;;;;21.66;60.12;99708.53;2083774;28;19956;-53
2022/10/07 00:56:16;;;;;;;;;;;;;;;21.67;60.01;99710.19;2083336;28;20051;-53
2022/10/07 00:57:18;;;;;;;;;;;;;;;21.67;60.21;99710.19;2089054;28;19940;-51
2022/10/07 00:58:18;;;;;;;;;;;;;;;21.67;60.04;99704.81;2085869;28;19948;-53
2022/10/07 00:59:21;;;;;;;;;;;;;;;21.67;60.04;99703.97;2089677;28;20341;-52
2022/10/07 01:00:22;;;;;;;;;;;;;;;21.66;60.20;99708.53;2087668;28;19981;-51
2022/10/07 01:01:24;;;;;;;;;;;;;;;21.67;60.26;99701.28;2086881;28;19938;-52
2022/10/07 01:02:26;;;;;;;;;;;;;;;21.67;60.19;99703.97;2081392;28;19998;-52
2022/10/07 01:03:28;;;;;;;;;;;;;;;21.67;60.09;99706.66;2082905;28;19957;-52
2022/10/07 01:04:28;;;;;;;;;;;;;;;21.66;60.18;99697.75;2089403;28;19928;-56
2022/10/07 01:05:30;;;;;;;;;;;;;;;21.66;60.38;99695.03;2091034;28;20482;-53
2022/10/07 01:06:30;;;;;;;;;;;;;;;21.67;60.32;99695.88;2084636;28;19933;-51
2022/10/07 01:07:33;;;;;;;;;;;;;;;21.67;60.17;99690.47;2082491;28;19941;-51
2022/10/07 01:08:34;;;;;;;;;;;;;;;21.67;60.26;99693.16;2088156;28;20367;-48
2022/10/07 01:09:35;;;;;;;;;;;;;;;21.66;60.33;99683.41;2083065;28;19929;-52
2022/10/07 01:10:41;;;;;;;;;;;;;;;21.66;60.48;99686.94;2084062;28;19924;-52
2022/10/07 01:11:50;;;;;;;;;;;;;;;21.64;60.67;99684.44;2085642;28;19924;-52
2022/10/07 01:13:02;;;;;;;;;;;;;;;21.66;60.41;99681.53;2085744;28;20440;-51
2022/10/07 01:14:07;;;;;;;;;;;;;;;21.66;60.53;99684.25;2088743;28;19933;-52
2022/10/07 01:15:12;;;;;;;;;;;;;;;21.66;60.51;99680.72;2086712;28;19932;-54
2022/10/07 01:16:17;;;;;;;;;;;;;;;21.67;60.69;99679.66;2090106;28;19932;-51
2022/10/07 01:17:21;;;;;;;;;;;;;;;21.66;60.59;99672.63;2092951;28;19929;-52
2022/10/07 01:18:25;;;;;;;;;;;;;;;21.65;60.55;99674.50;2096120;28;19934;-52
2022/10/07 01:19:39;;;;;;;;;;;;;;;21.63;60.56;99671.97;2089704;28;19940;-50
2022/10/07 01:20:44;;;;;;;;;;;;;;;21.64;60.66;99668.22;2084996;28;20322;-50
2022/10/07 01:21:54;;;;;;;;;;;;;;;21.66;60.54;99667.22;2084886;28;20015;-56
2022/10/07 01:23:05;;;;;;;;;;;;;;;21.66;60.55;99669.91;2080522;28;19963;-55
2022/10/07 01:24:15;;;;;;;;;;;;;;;21.63;61.00;99661.16;2086449;28;20468;-54
2022/10/07 01:25:25;;;;;;;;;;;;;;;21.64;60.68;99660.13;2085330;28;20043;-53
2022/10/07 01:26:43;;;;;;;;;;;;;;;21.65;60.85;99655.59;2083971;28;19940;-55
2022/10/07 01:27:49;;;;;;;;;;;;;;;21.64;60.55;99656.59;2081583;28;19925;-51
2022/10/07 01:28:53;;;;;;;;;;;;;;;21.64;60.71;99649.34;2083593;28;19937;-51
2022/10/07 01:29:57;;;;;;;;;;;;;;;21.63;60.77;99654.94;2083635;28;20497;-52
2022/10/07 01:31:00;;;;;;;;;;;;;;;21.63;60.81;99649.53;2082248;28;19966;-52
2022/10/07 01:32:05;;;;;;;;;;;;;;;21.63;60.63;99653.06;2084520;28;20831;-51
2022/10/07 01:33:10;;;;;;;;;;;;;;;21.63;60.86;99647.66;2091296;28;19939;-60
2022/10/07 01:34:14;;;;;;;;;;;;;;;21.63;60.81;99647.66;2090903;28;19932;-53
2022/10/07 01:35:17;;;;;;;;;;;;;;;21.63;60.74;99649.53;2095440;28;19936;-51
2022/10/07 01:36:21;;;;;;;;;;;;;;;21.62;60.82;99651.41;2092168;28;19924;-55
2022/10/07 01:37:23;;;;;;;;;;;;;;;21.62;60.78;99648.72;2089002;28;19997;-50
2022/10/07 01:38:26;;;;;;;;;;;;;;;21.62;60.74;99648.72;2090509;28;20323;-54
2022/10/07 01:39:29;;;;;;;;;;;;;;;21.62;60.75;99651.41;2091562;28;19939;-54
2022/10/07 01:40:33;;;;;;;;;;;;;;;21.63;60.90;99654.94;2089536;28;19940;-53
2022/10/07 01:41:36;;;;;;;;;;;;;;;21.63;60.90;99647.66;2094398;28;19931;-54
2022/10/07 01:42:38;;;;;;;;;;;;;;;21.62;60.72;99643.31;2089808;28;19971;-52
2022/10/07 01:43:41;;;;;;;;;;;;;;;21.62;60.75;99637.91;2097356;28;19924;-48
2022/10/07 01:44:44;;;;;;;;;;;;;;;21.62;60.85;99648.72;2093488;28;19932;-48
2022/10/07 01:45:45;;;;;;;;;;;;;;;21.61;60.81;99641.63;2089549;28;19924;-54
2022/10/07 01:46:46;;;;;;;;;;;;;;;21.61;60.84;99643.50;2092345;28;19932;-51
2022/10/07 01:47:47;;;;;;;;;;;;;;;21.61;60.65;99640.81;2095622;28;19977;-50
2022/10/07 01:48:50;;;;;;;;;;;;;;;21.61;60.65;99648.91;2088170;28;20341;-51
2022/10/07 01:49:52;;;;;;;;;;;;;;;21.61;60.59;99640.81;2092239;28;20317;-53
2022/10/07 01:50:52;;;;;;;;;;;;;;;21.62;60.63;99643.31;2089932;28;19935;-50
2022/10/07 01:52:03;;;;;;;;;;;;;;;21.61;60.61;99640.81;2084408;28;19959;-49
2022/10/07 01:53:13;;;;;;;;;;;;;;;21.61;60.94;99636.22;2078592;28;19997;-48
2022/10/07 01:54:22;;;;;;;;;;;;;;;21.60;60.77;99634.56;2098241;28;19947;-53
2022/10/07 01:55:40;;;;;;;;;;;;;;;21.61;60.50;99640.81;2092950;28;19957;-54
2022/10/07 01:56:45;;;;;;;;;;;;;;;21.60;60.89;99629.19;2088459;28;20462;-55
2022/10/07 01:57:50;;;;;;;;;;;;;;;21.61;60.71;99636.22;2093944;28;19928;-50
2022/10/07 01:59:04;;;;;;;;;;;;;;;21.60;60.74;99633.75;2091491;28;19924;-50
2022/10/07 02:00:06;;;;;;;;;;;;;;;21.61;60.69;99633.53;2092268;28;19975;-51
2022/10/07 02:01:11;;;;;;;;;;;;;;;21.60;60.75;99628.34;2078166;28;20035;-53
2022/10/07 02:02:18;;;;;;;;;;;;;;;21.59;60.65;99627.53;2091289;28;19940;-51
2022/10/07 02:03:30;;;;;;;;;;;;;;;21.59;60.74;99629.38;2091222;28;19933;-50
2022/10/07 02:04:44;;;;;;;;;;;;;;;21.60;60.75;99628.34;2091710;28;19989;-56
2022/10/07 02:05:50;;;;;;;;;;;;;;;21.59;60.76;99627.53;2094383;28;19934;-54
2022/10/07 02:06:56;;;;;;;;;;;;;;;21.59;60.96;99619.41;2092816;28;19932;-53
2022/10/07 02:08:04;;;;;;;;;;;;;;;21.58;60.77;99615.03;2091023;28;19978;-54
2022/10/07 02:09:10;;;;;;;;;;;;;;;21.58;60.95;99615.03;2082543;28;19931;-54
2022/10/07 02:10:15;;;;;;;;;;;;;;;21.58;60.66;99617.72;2091462;28;20339;-53
2022/10/07 02:11:20;;;;;;;;;;;;;;;21.58;60.83;99615.03;2087041;28;19929;-51
2022/10/07 02:12:23;;;;;;;;;;;;;;;21.58;60.65;99619.59;2094748;28;20012;-51
2022/10/07 02:13:27;;;;;;;;;;;;;;;21.59;60.63;99622.13;2089856;28;20011;-51
2022/10/07 02:14:35;;;;;;;;;;;;;;;21.58;60.84;99619.59;2090656;28;19925;-53
2022/10/07 02:15:39;;;;;;;;;;;;;;;21.60;60.77;99617.56;2093027;28;19963;-53
2022/10/07 02:16:41;;;;;;;;;;;;;;;21.60;60.84;99612.16;2083652;28;20916;-51
2022/10/07 02:17:46;;;;;;;;;;;;;;;21.57;60.62;99609.84;2083677;28;20646;-50
2022/10/07 02:18:49;;;;;;;;;;;;;;;21.58;60.79;99611.50;2087174;28;19970;-53
2022/10/07 02:19:53;;;;;;;;;;;;;;;21.57;60.96;99610.69;2078108;28;20294;-51
2022/10/07 02:20:54;;;;;;;;;;;;;;;21.57;60.88;99607.97;2084958;28;19936;-54
2022/10/07 02:21:57;;;;;;;;;;;;;;;21.55;60.79;99610.03;2079717;28;19925;-54
2022/10/07 02:22:59;;;;;;;;;;;;;;;21.57;60.80;99607.16;2082347;28;19925;-54
2022/10/07 02:24:01;;;;;;;;;;;;;;;21.56;60.85;99606.31;2086708;28;19928;-55
2022/10/07 02:25:02;;;;;;;;;;;;;;;21.57;61.04;99607.16;2082098;28;19933;-51
2022/10/07 02:26:05;;;;;;;;;;;;;;;21.56;60.83;99600.06;2084975;28;19978;-54
2022/10/07 02:27:08;;;;;;;;;;;;;;;21.56;60.80;99597.38;2082820;28;20433;-54
2022/10/07 02:28:11;;;;;;;;;;;;;;;21.55;60.82;99596.53;2077467;28;22110;-53
2022/10/07 02:29:14;;;;;;;;;;;;;;;21.55;60.67;99584.91;2087440;28;19999;-54
2022/10/07 02:30:18;;;;;;;;;;;;;;;21.55;60.71;99599.25;2078349;28;19932;-57
2022/10/07 02:31:21;;;;;;;;;;;;;;;21.56;60.67;99600.94;2077449;28;19931;-54
2022/10/07 02:32:24;;;;;;;;;;;;;;;21.56;60.62;99600.94;2085930;28;20423;-52
2022/10/07 02:33:27;;;;;;;;;;;;;;;21.55;60.57;99593.00;2087430;28;19935;-53
2022/10/07 02:34:30;;;;;;;;;;;;;;;21.55;61.01;99588.44;2088338;28;20508;-50
2022/10/07 02:35:32;;;;;;;;;;;;;;;21.54;60.69;99594.88;2089445;28;19928;-54
2022/10/07 02:36:35;;;;;;;;;;;;;;;21.54;60.82;99600.28;2084280;28;19935;-56
2022/10/07 02:37:37;;;;;;;;;;;;;;;21.53;60.73;99590.50;2083658;28;19978;-51
2022/10/07 02:38:39;;;;;;;;;;;;;;;21.54;60.92;99592.19;2079744;28;19955;-56
2022/10/07 02:39:39;;;;;;;;;;;;;;;21.55;60.87;99587.63;2083915;28;19982;-55
2022/10/07 02:40:43;;;;;;;;;;;;;;;21.54;61.00;99591.34;2088187;28;19928;-50
2022/10/07 02:41:48;;;;;;;;;;;;;;;21.52;60.91;99593.41;2085763;28;19933;-51
2022/10/07 02:42:53;;;;;;;;;;;;;;;21.53;60.61;99593.19;2088642;28;19932;-54
2022/10/07 02:43:56;;;;;;;;;;;;;;;21.53;60.87;99592.38;2087191;28;19932;-53
2022/10/07 02:45:01;;;;;;;;;;;;;;;21.53;60.84;99595.06;2071279;28;20325;-56
2022/10/07 02:46:06;;;;;;;;;;;;;;;21.51;60.90;99581.78;2076546;28;19956;-58
2022/10/07 02:47:13;;;;;;;;;;;;;;;21.53;60.94;99589.66;2077972;28;20496;-54
2022/10/07 02:48:18;;;;;;;;;;;;;;;21.52;60.77;99588.03;2078640;28;19928;-49
2022/10/07 02:49:23;;;;;;;;;;;;;;;21.52;60.81;99583.44;2079255;28;19928;-51
2022/10/07 02:50:24;;;;;;;;;;;;;;;21.53;60.64;99584.28;2070698;28;19929;-53
2022/10/07 02:51:28;;;;;;;;;;;;;;;21.53;60.87;99590.50;2082734;28;19936;-52
2022/10/07 02:52:30;;;;;;;;;;;;;;;21.53;60.87;99584.28;2081541;28;19981;-50
2022/10/07 02:53:33;;;;;;;;;;;;;;;21.52;60.88;99575.34;2071686;28;19933;-49
2022/10/07 02:54:35;;;;;;;;;;;;;;;21.53;60.74;99584.28;2082277;28;19930;-51
2022/10/07 02:55:36;;;;;;;;;;;;;;;21.52;60.97;99588.03;2084421;28;20486;-52
2022/10/07 02:56:39;;;;;;;;;;;;;;;21.53;60.80;99578.88;2077992;28;20334;-52
2022/10/07 02:57:42;;;;;;;;;;;;;;;21.52;60.88;99588.84;2075852;28;19940;-52
2022/10/07 02:58:45;;;;;;;;;;;;;;;21.52;60.92;99583.44;2080553;28;19970;-50
2022/10/07 02:59:48;;;;;;;;;;;;;;;21.54;60.73;99584.09;2081846;28;20016;-53
2022/10/07 03:00:51;;;;;;;;;;;;;;;21.52;60.96;99582.63;2081169;28;19936;-50
2022/10/07 03:01:58;;;;;;;;;;;;;;;21.52;60.79;99580.75;2081853;28;19932;-54
2022/10/07 03:03:01;;;;;;;;;;;;;;;21.53;61.01;99579.69;2082010;28;19933;-52
2022/10/07 03:04:02;;;;;;;;;;;;;;;21.51;60.76;99579.09;2081777;28;19991;-51
2022/10/07 03:05:05;;;;;;;;;;;;;;;21.52;60.93;99583.44;2081706;28;19928;-53
2022/10/07 03:06:07;;;;;;;;;;;;;;;21.51;60.66;99581.78;2085158;28;19925;-50
2022/10/07 03:07:08;;;;;;;;;;;;;;;21.52;60.85;99582.63;2090575;28;19977;-53
2022/10/07 03:08:10;;;;;;;;;;;;;;;21.51;60.86;99578.25;2087815;28;19942;-50
2022/10/07 03:09:11;;;;;;;;;;;;;;;21.51;60.84;99579.09;2088071;28;19929;-53
2022/10/07 03:10:13;;;;;;;;;;;;;;;21.51;60.88;99570.16;2088165;28;20364;-52
2022/10/07 03:11:14;;;;;;;;;;;;;;;21.50;60.76;99580.09;2094039;28;19928;-51
2022/10/07 03:12:15;;;;;;;;;;;;;;;21.50;60.71;99584.69;2092575;28;19924;-50
2022/10/07 03:13:16;;;;;;;;;;;;;;;21.50;60.68;99580.09;2093393;28;19924;-49
2022/10/07 03:14:17;;;;;;;;;;;;;;;21.51;60.76;99580.97;2092775;28;19997;-50
2022/10/07 03:15:19;;;;;;;;;;;;;;;21.51;60.83;99579.09;2093670;28;19932;-50
2022/10/07 03:16:20;;;;;;;;;;;;;;;21.52;60.65;99577.22;2091947;28;19928;-51
2022/10/07 03:17:22;;;;;;;;;;;;;;;21.51;60.56;99589.88;2095092;28;20021;-51
2022/10/07 03:18:27;;;;;;;;;;;;;;;21.50;60.75;99584.69;2087779;28;19966;-53
2022/10/07 03:19:27;;;;;;;;;;;;;;;21.50;60.75;99590.06;2091116;28;20577;-51
2022/10/07 03:20:29;;;;;;;;;;;;;;;21.50;60.69;99590.06;2088790;28;19936;-49
2022/10/07 03:21:31;;;;;;;;;;;;;;;21.49;60.82;99583.84;2095970;28;19928;-50
2022/10/07 03:22:33;;;;;;;;;;;;;;;21.50;60.82;99590.06;2088249;28;20006;-53
2022/10/07 03:23:33;;;;;;;;;;;;;;;21.49;60.86;99583.84;2090247;28;20035;-51
2022/10/07 03:24:35;;;;;;;;;;;;;;;21.49;60.92;99583.84;2091384;28;19924;-56
2022/10/07 03:25:35;;;;;;;;;;;;;;;21.50;60.77;99590.06;2090485;28;19997;-50
2022/10/07 03:26:37;;;;;;;;;;;;;;;21.50;60.90;99585.50;2094248;28;19978;-48
2022/10/07 03:27:38;;;;;;;;;;;;;;;21.49;60.86;99583.84;2096874;28;19924;-52
2022/10/07 03:28:39;;;;;;;;;;;;;;;21.48;60.84;99582.19;2088268;28;20014;-50
2022/10/07 03:29:40;;;;;;;;;;;;;;;21.48;61.01;99592.13;2097264;28;19978;-54
2022/10/07 03:30:41;;;;;;;;;;;;;;;21.49;60.79;99591.94;2097212;28;20585;-50
2022/10/07 03:31:43;;;;;;;;;;;;;;;21.49;60.88;99585.72;2094593;28;19928;-49
2022/10/07 03:32:45;;;;;;;;;;;;;;;21.48;60.74;99584.91;2092940;28;20359;-50
2022/10/07 03:33:46;;;;;;;;;;;;;;;21.47;61.00;99583.22;2093507;28;19947;-53
2022/10/07 03:34:47;;;;;;;;;;;;;;;21.48;60.99;99589.44;2091843;28;19943;-54
2022/10/07 03:35:48;;;;;;;;;;;;;;;21.47;60.94;99582.38;2096192;28;20394;-55
2022/10/07 03:36:50;;;;;;;;;;;;;;;21.47;60.93;99582.38;2094478;28;19935;-53
2022/10/07 03:37:50;;;;;;;;;;;;;;;21.47;60.69;99585.06;2091263;28;19978;-54
2022/10/07 03:38:54;;;;;;;;;;;;;;;21.48;60.84;99587.59;2092180;28;19932;-52
2022/10/07 03:39:54;;;;;;;;;;;;;;;21.47;61.04;99583.22;2093426;28;19932;-51
2022/10/07 03:40:56;;;;;;;;;;;;;;;21.48;60.86;99582.19;2082029;28;19936;-54
2022/10/07 03:41:57;;;;;;;;;;;;;;;21.46;60.98;99572.63;2082755;28;19935;-51
2022/10/07 03:42:58;;;;;;;;;;;;;;;21.48;60.83;99581.34;2086311;28;20012;-52
2022/10/07 03:44:00;;;;;;;;;;;;;;;21.46;61.02;99573.47;2089422;28;19951;-52
2022/10/07 03:45:00;;;;;;;;;;;;;;;21.46;60.80;99578.03;2082615;28;20031;-53
2022/10/07 03:46:02;;;;;;;;;;;;;;;21.45;60.88;99582.56;2086561;28;19940;-49
2022/10/07 03:47:03;;;;;;;;;;;;;;;21.45;60.87;99582.56;2080654;28;19932;-52
2022/10/07 03:48:05;;;;;;;;;;;;;;;21.45;60.70;99577.16;2086962;28;19929;-48
2022/10/07 03:49:07;;;;;;;;;;;;;;;21.47;61.18;99582.38;2085584;28;20040;-57
2022/10/07 03:50:08;;;;;;;;;;;;;;;21.45;60.98;99577.16;2088441;28;19986;-54
2022/10/07 03:51:09;;;;;;;;;;;;;;;21.46;60.81;99578.03;2082040;28;19929;-54
2022/10/07 03:52:10;;;;;;;;;;;;;;;21.45;60.86;99577.16;2082607;28;19943;-51
2022/10/07 03:53:11;;;;;;;;;;;;;;;21.46;60.87;99569.94;2083065;28;19928;-54
2022/10/07 03:54:12;;;;;;;;;;;;;;;21.46;61.10;99578.84;2086204;28;20313;-51
2022/10/07 03:55:13;;;;;;;;;;;;;;;21.46;60.82;99573.47;2085294;28;19928;-54
2022/10/07 03:56:14;;;;;;;;;;;;;;;21.46;60.77;99578.84;2084318;28;19925;-53
2022/10/07 03:58:34;;;;;;;;;;;;;;;21.46;60.85;99573.47;2083947;28;19964;-55
2022/10/07 03:59:35;;;;;;;;;;;;;;;21.45;60.78;99579.03;2083525;28;19982;-57
2022/10/07 04:00:37;;;;;;;;;;;;;;;21.45;60.91;99579.88;2085655;28;19933;-56
2022/10/07 04:01:38;;;;;;;;;;;;;;;21.45;60.72;99571.75;2087240;28;19929;-55
2022/10/07 04:02:40;;;;;;;;;;;;;;;21.45;61.08;99577.16;2085508;28;20360;-54
2022/10/07 04:03:42;;;;;;;;;;;;;;;21.44;61.13;99580.91;2089344;28;20054;-54
2022/10/07 04:04:43;;;;;;;;;;;;;;;21.46;60.70;99584.25;2086495;28;19939;-52
2022/10/07 04:05:54;;;;;;;;;;;;;;;21.46;60.90;99578.84;2085475;28;20514;-54
2022/10/07 04:06:55;;;;;;;;;;;;;;;21.45;60.73;99571.75;2082842;28;19939;-54
2022/10/07 04:07:57;;;;;;;;;;;;;;;21.45;60.86;99577.16;2084643;28;20488;-54
2022/10/07 04:08:58;;;;;;;;;;;;;;;21.44;61.15;99577.38;2085583;28;19940;-52
2022/10/07 04:09:59;;;;;;;;;;;;;;;21.44;61.03;99575.50;2085160;28;19989;-52
2022/10/07 04:11:01;;;;;;;;;;;;;;;21.44;60.97;99574.69;2083207;28;20006;-51
2022/10/07 04:12:02;;;;;;;;;;;;;;;21.44;61.07;99566.59;2078794;28;19940;-51
2022/10/07 04:13:04;;;;;;;;;;;;;;;21.42;61.11;99573.03;2082589;28;19974;-51
2022/10/07 04:14:04;;;;;;;;;;;;;;;21.44;60.72;99574.69;2086544;28;21085;-49
2022/10/07 04:15:06;;;;;;;;;;;;;;;21.43;60.90;99568.47;2084748;28;19949;-51
2022/10/07 04:16:07;;;;;;;;;;;;;;;21.42;60.74;99567.63;2096270;22;19932;-50
2022/10/07 04:17:09;;;;;;;;;;;;;;;21.41;61.08;99574.03;2079482;28;19965;-54
2022/10/07 04:18:09;;;;;;;;;;;;;;;21.44;61.04;99574.69;2073635;28;19933;-47
2022/10/07 04:19:13;;;;;;;;;;;;;;;21.41;60.88;99562.41;2079007;28;19956;-54
2022/10/07 04:20:14;;;;;;;;;;;;;;;21.40;61.01;99572.38;2076182;28;19925;-52
2022/10/07 04:21:15;;;;;;;;;;;;;;;21.41;60.76;99570.50;2076092;28;19936;-53
2022/10/07 04:22:16;;;;;;;;;;;;;;;21.42;60.75;99574.88;2075401;28;19932;-52
2022/10/07 04:23:17;;;;;;;;;;;;;;;21.41;60.86;99574.03;2076222;28;19935;-54
2022/10/07 04:24:18;;;;;;;;;;;;;;;21.40;60.84;99574.25;2078002;28;19978;-52
2022/10/07 04:25:36;;;;;;;;;;;;;;;21.41;60.77;99576.75;2075053;28;19979;-53
2022/10/07 04:26:38;;;;;;;;;;;;;;;21.41;60.76;99571.34;2077776;28;20297;-56
2022/10/07 04:27:39;;;;;;;;;;;;;;;21.41;60.93;99565.13;2074070;28;19937;-54
2022/10/07 04:28:41;;;;;;;;;;;;;;;21.41;60.85;99574.03;2076175;28;20601;-54
2022/10/07 04:29:41;;;;;;;;;;;;;;;21.41;60.70;99563.25;2081316;28;19956;-56
2022/10/07 04:30:43;;;;;;;;;;;;;;;21.40;60.74;99564.28;2077141;28;19932;-51
2022/10/07 04:31:44;;;;;;;;;;;;;;;21.40;60.96;99564.28;2079448;28;19925;-53
2022/10/07 04:32:45;;;;;;;;;;;;;;;21.40;61.04;99558.06;2078888;28;19929;-55
2022/10/07 04:33:46;;;;;;;;;;;;;;;21.41;60.98;99571.34;2077982;28;20020;-54
2022/10/07 04:34:50;;;;;;;;;;;;;;;21.39;60.88;99567.19;2067986;28;19937;-55
2022/10/07 04:35:50;;;;;;;;;;;;;;;21.41;60.67;99565.13;2042506;28;19933;-56
2022/10/07 04:36:52;;;;;;;;;;;;;;;21.40;60.93;99571.56;2066795;28;20031;-52
2022/10/07 04:37:53;;;;;;;;;;;;;;;21.38;61.14;99571.75;2068932;28;20521;-51
2022/10/07 04:38:54;;;;;;;;;;;;;;;21.38;60.90;99569.03;2076847;28;19929;-53
2022/10/07 04:39:55;;;;;;;;;;;;;;;21.39;60.71;99570.69;2074486;28;19955;-53
2022/10/07 04:40:56;;;;;;;;;;;;;;;21.39;60.88;99572.56;2076611;28;19932;-55
2022/10/07 04:41:57;;;;;;;;;;;;;;;21.39;60.86;99581.50;2077433;28;19929;-50
2022/10/07 04:44:17;;;;;;;;;;;;;;;21.40;60.74;99571.56;2073925;28;20675;-53
2022/10/07 04:45:17;;;;;;;;;;;;;;;21.40;60.67;99571.56;2076484;28;19932;-54
2022/10/07 04:46:19;;;;;;;;;;;;;;;21.39;60.92;99570.69;2074241;28;20532;-54
2022/10/07 04:47:19;;;;;;;;;;;;;;;21.38;60.93;99576.31;2073647;28;20345;-56
2022/10/07 04:48:21;;;;;;;;;;;;;;;21.39;60.94;99572.56;2074461;28;19937;-56
2022/10/07 04:49:24;;;;;;;;;;;;;;;21.39;61.03;99569.88;2072460;28;20006;-57
2022/10/07 04:50:25;;;;;;;;;;;;;;;21.38;60.83;99568.22;2073155;28;20692;-48
2022/10/07 04:51:28;;;;;;;;;;;;;;;21.39;60.90;99576.09;2073460;28;19963;-52
2022/10/07 04:52:29;;;;;;;;;;;;;;;21.38;60.89;99573.63;2073552;28;20341;-54
2022/10/07 04:53:30;;;;;;;;;;;;;;;21.39;60.75;99567.19;2073886;28;19933;-56
2022/10/07 04:54:32;;;;;;;;;;;;;;;21.38;61.29;99576.31;2078346;28;19979;-55
2022/10/07 04:55:37;;;;;;;;;;;;;;;21.37;61.19;99580.88;2076736;28;20321;-55
2022/10/07 04:56:38;;;;;;;;;;;;;;;21.37;60.94;99577.34;2076353;28;19942;-54
2022/10/07 04:57:39;;;;;;;;;;;;;;;21.37;60.91;99578.19;2080607;28;19925;-52
2022/10/07 04:58:41;;;;;;;;;;;;;;;21.37;61.23;99577.34;2073014;28;19929;-50
2022/10/07 04:59:41;;;;;;;;;;;;;;;21.38;60.85;99576.31;2075613;28;20372;-57
2022/10/07 05:00:44;;;;;;;;;;;;;;;21.37;60.80;99575.50;2073901;28;20948;-53
2022/10/07 05:01:44;;;;;;;;;;;;;;;21.38;61.20;99577.13;2073002;28;19929;-57
2022/10/07 05:02:49;;;;;;;;;;;;;;;21.36;61.19;99573.75;2074254;28;19929;-53
2022/10/07 05:03:49;;;;;;;;;;;;;;;21.37;60.89;99569.25;2075555;28;19933;-52
2022/10/07 05:04:51;;;;;;;;;;;;;;;21.35;60.94;99571.28;2072142;28;20444;-56
2022/10/07 05:05:54;;;;;;;;;;;;;;;21.37;60.78;99569.25;2068469;28;19933;-54
2022/10/07 05:06:55;;;;;;;;;;;;;;;21.37;60.65;99569.25;2068985;28;20390;-50
2022/10/07 05:07:56;;;;;;;;;;;;;;;21.38;60.97;99568.22;2080308;28;19933;-54
2022/10/07 05:08:57;;;;;;;;;;;;;;;21.37;61.05;99570.09;2076630;28;19929;-48
2022/10/07 05:09:58;;;;;;;;;;;;;;;21.38;60.85;99570.91;2074800;28;19929;-54
2022/10/07 05:11:00;;;;;;;;;;;;;;;21.37;60.89;99564.69;2070466;28;20535;-56
2022/10/07 05:12:01;;;;;;;;;;;;;;;21.37;60.79;99569.25;2071654;28;19941;-51
2022/10/07 05:13:02;;;;;;;;;;;;;;;21.37;60.77;99569.25;2066083;28;19933;-52
2022/10/07 05:14:04;;;;;;;;;;;;;;;21.36;61.02;99565.66;2072164;28;19976;-55
2022/10/07 05:15:05;;;;;;;;;;;;;;;21.36;61.16;99562.16;2071413;28;19929;-57
2022/10/07 05:16:08;;;;;;;;;;;;;;;21.36;60.91;99572.94;2079558;28;19925;-55
2022/10/07 05:17:08;;;;;;;;;;;;;;;21.35;61.22;99561.31;2075371;28;19971;-56
2022/10/07 05:18:10;;;;;;;;;;;;;;;21.35;60.84;99571.28;2074889;28;19929;-53
2022/10/07 05:19:11;;;;;;;;;;;;;;;21.35;60.81;99566.72;2068817;28;19933;-55
2022/10/07 05:20:12;;;;;;;;;;;;;;;21.35;60.82;99568.59;2074247;28;19929;-54
2022/10/07 05:21:14;;;;;;;;;;;;;;;21.35;60.93;99571.28;2071742;28;20487;-56
2022/10/07 05:22:15;;;;;;;;;;;;;;;21.35;60.96;99565.88;2074832;28;19933;-53
2022/10/07 05:23:17;;;;;;;;;;;;;;;21.34;60.98;99565.06;2077153;28;20381;-48
2022/10/07 05:24:18;;;;;;;;;;;;;;;21.34;60.91;99569.59;2079401;28;20328;-52
2022/10/07 05:25:19;;;;;;;;;;;;;;;21.33;61.06;99568.78;2076340;28;19982;-48
2022/10/07 05:26:21;;;;;;;;;;;;;;;21.34;61.01;99566.91;2077556;28;20723;-55
2022/10/07 05:27:22;;;;;;;;;;;;;;;21.35;61.20;99569.41;2076984;28;20019;-52
2022/10/07 05:28:23;;;;;;;;;;;;;;;21.34;60.96;99565.06;2081167;28;19932;-51
2022/10/07 05:29:24;;;;;;;;;;;;;;;21.35;61.16;99568.59;2074725;28;19929;-53